Pagina principale
METAR-TAF:

METAR-TAF

Aeroporti :

Calvi, Francia

Aeroporto di Calvi Sainte-Catherine

latitudine: 42-32N, longitudine: 008-48E, altezza: 64 m

Osservazione

Il bollettino è stato emesso 40 minuti fa, alle 09:00 UTC
Vento 10 kt da nord, variando fra nord-ovest e nord/nord-est
Temperature 25°C
Umidità 65%
Pressione 1017 hPa
Visibilità 10 km o più
Poco nuvoloso ad un'altezza di 7300 ft

METAR: LFKC 290900Z 35010KT 320V030 9999 FEW073 25/18 Q1017 NOSIG

Ora: 11:40 (09:40 UTC)

Previsione

Il bollettino è stato emesso 4 ore e 40 minuti fa, alle 05:00 UTC
Previsione valida dal 29 alle 06 UTC al 30 alle 06 UTC
Vento 5 kt da sud
Visibilità 10 km o più
nessuna nube inferiore a 1500 m e nessun cumulonembo
Evoluzione graduale
dal 29 alle 08 UTC al 29 alle 10 UTC
Vento 10 kt da nord
Evoluzione graduale
dal 29 alle 18 UTC al 29 alle 20 UTC
Vento 5 kt da sud

TAF: LFKC 290500Z 2906/3006 18005KT CAVOK BECMG 2908/2910 35010KT BECMG 2918/2920 18005KT TX28/2913Z TN15/3003Z

Osservazioni e previsioni meteorologiche di più di 4000 aeroporti (messaggi METAR e TAF).

Le stazioni disponibili sono rappresentate dai dischi gialli e rossi sulla carta.

Puntare il mouse per vedere il nome della stazione.

Clicca sopra per visualizzare le osservazioni e previsioni meteorologiche.

Per cambiare la mappa : fare clic sui pulsanti verdi con una croce nera per ingrandire, il pulsante verde con un trattino per diminuire, o sulla freccia verde per le mappe adiacenti.


METAR-TAF: